createdAt,value
2023-01-19T00:00:14.194Z,93.4
2023-01-19T00:01:24.332Z,93.1
2023-01-19T00:02:34.443Z,93.2
2023-01-19T00:03:44.564Z,93.5
2023-01-19T00:04:54.689Z,93.7
2023-01-19T00:06:04.692Z,93.5
2023-01-19T00:07:14.813Z,93.1
2023-01-19T00:08:24.053Z,93.4
2023-01-19T00:09:34.169Z,93.5
2023-01-19T00:10:44.304Z,93.8
2023-01-19T00:11:54.411Z,93.7
2023-01-19T00:13:04.528Z,93.8
2023-01-19T00:14:14.634Z,94
2023-01-19T00:16:34.890Z,93.9
2023-01-19T00:17:45.006Z,93.6
2023-01-19T00:18:55.115Z,93.2
2023-01-19T00:20:05.238Z,93.2
2023-01-19T00:21:15.347Z,93.3
2023-01-19T00:22:25.480Z,93
2023-01-19T00:23:34.610Z,93.3
2023-01-19T00:24:44.735Z,93.3
2023-01-19T00:25:54.843Z,93.2
2023-01-19T00:27:04.966Z,93.2
2023-01-19T00:28:15.085Z,93.3
2023-01-19T00:29:25.215Z,93.3
2023-01-19T00:30:35.332Z,93.2
2023-01-19T00:31:45.000Z,93.2
2023-01-19T00:32:55.558Z,92.9
2023-01-19T00:34:05.677Z,92.7
2023-01-19T00:35:15.809Z,92.7
2023-01-19T00:36:25.923Z,93
2023-01-19T00:37:36.036Z,93
2023-01-19T00:38:45.179Z,92.8
2023-01-19T00:39:55.291Z,92.9
2023-01-19T00:41:05.409Z,93.2
2023-01-19T00:42:15.535Z,92.8
2023-01-19T00:43:25.649Z,92.6
2023-01-19T00:44:35.774Z,92.5
2023-01-19T00:45:44.902Z,93
2023-01-19T00:46:55.037Z,93
2023-01-19T00:48:05.161Z,93
2023-01-19T00:49:15.264Z,93.3
2023-01-19T00:50:25.385Z,92.9
2023-01-19T00:51:35.503Z,92.6
2023-01-19T00:52:45.512Z,92.8
2023-01-19T00:53:55.744Z,93.3
2023-01-19T00:55:05.754Z,93
2023-01-19T00:56:15.986Z,92.7
2023-01-19T00:57:26.091Z,92.9
2023-01-19T00:58:36.217Z,93.2
2023-01-19T00:59:46.328Z,92.9
2023-01-19T01:00:55.478Z,93
2023-01-19T01:02:05.604Z,92.6
2023-01-19T01:03:15.717Z,93
2023-01-19T01:04:25.843Z,93.3
2023-01-19T01:05:35.958Z,93.3
2023-01-19T01:06:46.068Z,93.2
2023-01-19T01:07:56.184Z,93.2
2023-01-19T01:09:06.308Z,93.6
2023-01-19T01:10:16.430Z,92.9
2023-01-19T01:11:26.552Z,92.6
2023-01-19T01:12:36.668Z,92.9
2023-01-19T01:13:46.788Z,93.2
2023-01-19T01:14:56.896Z,92.9
2023-01-19T01:16:06.047Z,92.8
2023-01-19T01:17:16.152Z,92.5
2023-01-19T01:19:36.387Z,92.3
2023-01-19T01:20:46.511Z,92.8
2023-01-19T01:21:56.634Z,93
2023-01-19T01:23:06.745Z,92.7
2023-01-19T01:24:16.861Z,92.8
2023-01-19T01:25:26.999Z,92.6
2023-01-19T01:26:37.103Z,92.6
2023-01-19T01:27:47.227Z,93
2023-01-19T01:28:57.337Z,92.7
2023-01-19T01:30:07.460Z,92.6
2023-01-19T01:31:16.593Z,92.8
2023-01-19T01:32:26.606Z,92.7
2023-01-19T01:33:36.840Z,93.2
2023-01-19T01:34:46.954Z,93.3
2023-01-19T01:35:57.070Z,93.3
2023-01-19T01:37:07.000Z,93.5
2023-01-19T01:38:17.306Z,93.6
2023-01-19T01:40:37.558Z,92.8
2023-01-19T01:41:47.662Z,92.9
2023-01-19T01:42:57.796Z,92.7
2023-01-19T01:44:07.901Z,92.8
2023-01-19T01:45:18.025Z,92.6
2023-01-19T01:46:28.252Z,92.5
2023-01-19T01:47:38.384Z,92.5
2023-01-19T01:48:48.497Z,92.7
2023-01-19T01:49:58.623Z,92.7
2023-01-19T01:51:08.725Z,92.8
2023-01-19T01:52:19.111Z,92.7
2023-01-19T01:53:28.984Z,92.8
2023-01-19T01:54:39.108Z,92.7
2023-01-19T01:55:49.210Z,92.9
2023-01-19T01:56:59.330Z,92.9
2023-01-19T01:58:09.451Z,92.7
2023-01-19T01:59:19.571Z,92.7
2023-01-19T02:00:29.674Z,92.9
2023-01-19T02:01:38.830Z,93.1
2023-01-19T02:02:48.940Z,92.9
2023-01-19T02:03:59.059Z,92.6
2023-01-19T02:05:09.183Z,92.6
2023-01-19T02:06:19.304Z,92.3
2023-01-19T02:07:29.417Z,92.4
2023-01-19T02:08:39.524Z,92.5
2023-01-19T02:09:49.661Z,92
2023-01-19T02:10:59.788Z,92
2023-01-19T02:12:09.895Z,91.7
2023-01-19T02:13:20.014Z,92.3
2023-01-19T02:14:30.136Z,92.6
2023-01-19T02:15:40.260Z,92.6
2023-01-19T02:16:50.486Z,92.8
2023-01-19T02:18:00.594Z,92.7
2023-01-19T02:19:10.716Z,92.7
2023-01-19T02:20:20.843Z,92.8
2023-01-19T02:21:30.957Z,92.5
2023-01-19T02:22:41.094Z,92.4
2023-01-19T02:23:51.188Z,92.4
2023-01-19T02:25:01.318Z,92.2
2023-01-19T02:26:11.443Z,91.9
2023-01-19T02:27:21.549Z,92
2023-01-19T02:28:31.683Z,91.9
2023-01-19T02:29:41.782Z,92
2023-01-19T02:30:51.912Z,91.8
2023-01-19T02:32:01.048Z,91.7
2023-01-19T02:33:11.179Z,91.5
2023-01-19T02:34:21.299Z,91.7
2023-01-19T02:35:31.418Z,91.3
2023-01-19T02:36:41.528Z,91.2
2023-01-19T02:37:51.631Z,91.2
2023-01-19T02:39:01.760Z,91.4
2023-01-19T02:40:11.881Z,91.4
2023-01-19T02:41:22.015Z,91.6
2023-01-19T02:42:32.000Z,91.6
2023-01-19T02:43:42.227Z,91.5
2023-01-19T02:44:52.358Z,91.4
2023-01-19T02:46:02.470Z,91.6
2023-01-19T02:47:11.603Z,91.7
2023-01-19T02:48:21.744Z,91.4
2023-01-19T02:49:31.851Z,91.3
2023-01-19T02:50:41.979Z,91.4
2023-01-19T02:51:52.075Z,91.6
2023-01-19T02:53:02.194Z,91.6
2023-01-19T02:54:12.338Z,91.5
2023-01-19T02:55:22.442Z,91.1
2023-01-19T02:56:32.570Z,90.9
2023-01-19T02:57:42.691Z,90.9
2023-01-19T02:58:52.786Z,91.1
2023-01-19T03:00:02.919Z,91
2023-01-19T03:01:13.038Z,91.1
2023-01-19T03:02:22.182Z,91.2
2023-01-19T03:03:32.281Z,91.1
2023-01-19T03:04:42.403Z,91.1
2023-01-19T03:05:52.516Z,91.8
2023-01-19T03:07:02.637Z,91.8
2023-01-19T03:08:12.768Z,91.7
2023-01-19T03:09:22.891Z,91.8
2023-01-19T03:10:33.018Z,91.9
2023-01-19T03:11:43.114Z,91.9
2023-01-19T03:12:53.243Z,91.9
2023-01-19T03:14:03.361Z,91.9
2023-01-19T03:15:13.484Z,91.8
2023-01-19T03:16:23.610Z,91.8
2023-01-19T03:17:33.845Z,91.9
2023-01-19T03:18:43.965Z,91.8
2023-01-19T03:19:54.087Z,91.7
2023-01-19T03:21:04.210Z,91.5
2023-01-19T03:22:14.325Z,91.6
2023-01-19T03:23:24.450Z,91.6
2023-01-19T03:25:44.679Z,91.6
2023-01-19T03:26:54.785Z,91.5
2023-01-19T03:28:04.911Z,91.6
2023-01-19T03:29:15.033Z,91.4
2023-01-19T03:30:25.148Z,91.5
2023-01-19T03:31:35.267Z,91.3
2023-01-19T03:32:44.402Z,91.1
2023-01-19T03:33:54.519Z,91.1
2023-01-19T03:35:04.639Z,91.2
2023-01-19T03:36:14.759Z,91
2023-01-19T03:37:24.886Z,91.2
2023-01-19T03:38:35.004Z,91.1
2023-01-19T03:39:45.113Z,91.1
2023-01-19T03:40:55.223Z,90.8
2023-01-19T03:42:05.362Z,90.9
2023-01-19T03:43:15.485Z,90.9
2023-01-19T03:44:25.605Z,90.8
2023-01-19T03:45:35.706Z,90.7
2023-01-19T03:46:45.833Z,90.6
2023-01-19T03:47:54.840Z,90.7
2023-01-19T03:49:05.079Z,90.6
2023-01-19T03:50:15.205Z,90.5
2023-01-19T03:51:25.321Z,90.8
2023-01-19T03:52:35.444Z,90.4
2023-01-19T03:53:45.556Z,90.4
2023-01-19T03:54:55.692Z,90.3
2023-01-19T03:56:05.785Z,90.3
2023-01-19T03:57:15.923Z,90.1
2023-01-19T03:58:26.033Z,89.9
2023-01-19T04:00:46.281Z,89.9
2023-01-19T04:01:56.388Z,89.8
2023-01-19T04:03:05.511Z,90
2023-01-19T04:04:15.638Z,89.9
2023-01-19T04:05:25.765Z,89.9
2023-01-19T04:06:35.895Z,90
2023-01-19T04:07:45.999Z,90
2023-01-19T04:08:56.121Z,89.7
2023-01-19T04:10:06.223Z,89.9
2023-01-19T04:11:16.340Z,89.5
2023-01-19T04:12:26.488Z,89.4
2023-01-19T04:13:36.599Z,89.7
2023-01-19T04:14:46.717Z,89.5
2023-01-19T04:15:56.830Z,89.6
2023-01-19T04:17:06.940Z,89.4
2023-01-19T04:18:16.070Z,89.3
2023-01-19T04:19:26.192Z,89.6
2023-01-19T04:20:36.314Z,89.3
2023-01-19T04:21:46.440Z,89.3
2023-01-19T04:22:56.568Z,89.2
2023-01-19T04:24:06.688Z,89.1
2023-01-19T04:25:16.787Z,89.1
2023-01-19T04:26:26.919Z,88.9
2023-01-19T04:27:37.021Z,88.7
2023-01-19T04:28:47.162Z,88.8
2023-01-19T04:29:57.258Z,88.9
2023-01-19T04:31:07.403Z,88.9
2023-01-19T04:32:17.514Z,88.8
2023-01-19T04:33:26.649Z,88.9
2023-01-19T04:34:36.769Z,89
2023-01-19T04:35:46.874Z,89
2023-01-19T04:36:57.007Z,89.2
2023-01-19T04:38:07.129Z,89
2023-01-19T04:39:17.255Z,89.3
2023-01-19T04:40:26.387Z,89.4
2023-01-19T04:42:46.606Z,89.4
2023-01-19T04:43:56.754Z,89
2023-01-19T04:45:06.875Z,89.2
2023-01-19T04:46:16.985Z,89.3
2023-01-19T04:47:27.091Z,89
2023-01-19T04:48:37.219Z,89
2023-01-19T04:49:47.345Z,88.9
2023-01-19T04:50:57.448Z,88.7
2023-01-19T04:52:07.570Z,88.9
2023-01-19T04:53:17.693Z,88.8
2023-01-19T04:54:27.816Z,88.9
2023-01-19T04:55:36.947Z,89
2023-01-19T04:56:47.069Z,89.3
2023-01-19T04:57:57.178Z,89.1
2023-01-19T04:59:07.303Z,89
2023-01-19T05:00:17.421Z,89.1
2023-01-19T05:01:27.551Z,88.9
2023-01-19T05:02:37.667Z,89.2
2023-01-19T05:03:47.772Z,89
2023-01-19T05:04:57.894Z,89.4
2023-01-19T05:06:08.001Z,89.1
2023-01-19T05:07:18.138Z,89.2
2023-01-19T05:08:28.237Z,88.9
2023-01-19T05:10:48.485Z,88.8
2023-01-19T05:11:57.631Z,89
2023-01-19T05:13:07.747Z,89
2023-01-19T05:15:27.994Z,88.9
2023-01-19T05:16:38.102Z,88.8
2023-01-19T05:17:48.220Z,89
2023-01-19T05:18:58.337Z,89
2023-01-19T05:20:08.462Z,88.8
2023-01-19T05:21:18.585Z,88.7
2023-01-19T05:22:28.689Z,89
2023-01-19T05:23:38.809Z,89
2023-01-19T05:24:48.933Z,88.9
2023-01-19T05:25:59.063Z,88.9
2023-01-19T05:27:08.189Z,88.8
2023-01-19T05:28:18.300Z,88.7
2023-01-19T05:29:28.417Z,88.8
2023-01-19T05:30:38.541Z,88.5
2023-01-19T05:31:48.652Z,88.8
2023-01-19T05:32:58.766Z,88.8
2023-01-19T05:34:08.886Z,88.8
2023-01-19T05:35:19.004Z,88.8
2023-01-19T05:36:29.135Z,88.8
2023-01-19T05:38:49.370Z,88.5
2023-01-19T05:39:59.495Z,88.4
2023-01-19T05:41:09.599Z,88.4
2023-01-19T05:42:18.735Z,88.5
2023-01-19T05:43:28.851Z,88.2
2023-01-19T05:44:38.975Z,88.2
2023-01-19T05:45:49.083Z,88.2
2023-01-19T05:46:59.220Z,88.1
2023-01-19T05:48:09.322Z,88.3
2023-01-19T05:49:19.450Z,88.3
2023-01-19T05:50:29.569Z,88.3
2023-01-19T05:51:39.685Z,88.5
2023-01-19T05:52:49.816Z,88.2
2023-01-19T05:53:59.919Z,88.2
2023-01-19T05:55:10.046Z,88
2023-01-19T05:56:20.420Z,88.1
2023-01-19T05:57:29.306Z,88.3
2023-01-19T05:58:39.414Z,88
2023-01-19T05:59:49.532Z,88.1
2023-01-19T06:00:59.000Z,87.9
2023-01-19T06:02:09.764Z,88.1
2023-01-19T06:03:19.900Z,88
2023-01-19T06:04:30.024Z,87.9
2023-01-19T06:05:40.134Z,88.1
2023-01-19T06:06:50.239Z,87.8
2023-01-19T06:08:00.381Z,87.9
2023-01-19T06:09:10.481Z,87.8
2023-01-19T06:10:20.609Z,88
2023-01-19T06:11:30.725Z,88
2023-01-19T06:12:39.853Z,88.2
2023-01-19T06:13:49.969Z,87.7
2023-01-19T06:15:00.088Z,88.3
2023-01-19T06:16:10.230Z,87.8
2023-01-19T06:17:20.333Z,88
2023-01-19T06:18:30.453Z,88.4
2023-01-19T06:19:40.571Z,88
2023-01-19T06:20:50.702Z,88
2023-01-19T06:22:00.809Z,87.9
2023-01-19T06:23:10.933Z,88.1
2023-01-19T06:24:21.050Z,88.3
2023-01-19T06:25:31.175Z,88.1
2023-01-19T06:27:51.397Z,87.9
2023-01-19T06:29:00.553Z,88.1
2023-01-19T06:30:10.656Z,87.9
2023-01-19T06:31:20.775Z,88.1
2023-01-19T06:32:30.903Z,87.9
2023-01-19T06:33:41.011Z,87.9
2023-01-19T06:34:51.143Z,87.5
2023-01-19T06:36:01.265Z,87.8
2023-01-19T06:37:11.363Z,87.7
2023-01-19T06:38:21.491Z,87.5
2023-01-19T06:39:31.604Z,87.7
2023-01-19T06:40:41.739Z,87.8
2023-01-19T06:41:51.851Z,87.6
2023-01-19T06:43:01.972Z,87.8
2023-01-19T06:44:11.098Z,87.7
2023-01-19T06:45:21.221Z,87.5
2023-01-19T06:46:31.348Z,87.7
2023-01-19T06:47:41.455Z,87.7
2023-01-19T06:48:51.576Z,87.6
2023-01-19T06:50:01.699Z,87.8
2023-01-19T06:51:11.804Z,87.8
2023-01-19T06:52:21.926Z,87.6
2023-01-19T06:53:32.051Z,87.6
2023-01-19T06:54:42.168Z,87.7
2023-01-19T06:55:52.280Z,87.6
2023-01-19T06:57:02.403Z,87.7
2023-01-19T06:58:12.530Z,87.6
2023-01-19T06:59:22.770Z,87.2
2023-01-19T07:00:32.879Z,87.6
2023-01-19T07:01:43.009Z,87.4
2023-01-19T07:02:53.119Z,87.8
2023-01-19T07:04:03.235Z,87.8
2023-01-19T07:05:13.368Z,87.7
2023-01-19T07:06:23.491Z,87.7
2023-01-19T07:07:33.611Z,87.5
2023-01-19T07:08:43.716Z,87.3
2023-01-19T07:09:53.829Z,87.6
2023-01-19T07:11:03.960Z,87.6
2023-01-19T07:12:14.086Z,87.2
2023-01-19T07:13:24.206Z,87.5
2023-01-19T07:14:33.323Z,87.9
2023-01-19T07:15:43.443Z,87.4
2023-01-19T07:16:53.567Z,87.4
2023-01-19T07:18:03.683Z,87.4
2023-01-19T07:19:13.804Z,87.4
2023-01-19T07:20:23.929Z,87.4
2023-01-19T07:21:34.050Z,87.7
2023-01-19T07:23:54.281Z,87.3
2023-01-19T07:25:04.395Z,87.2
2023-01-19T07:26:14.517Z,87.6
2023-01-19T07:27:24.642Z,87.6
2023-01-19T07:28:34.750Z,87.5
2023-01-19T07:29:43.889Z,87.5
2023-01-19T07:30:54.020Z,87.3
2023-01-19T07:32:04.124Z,88
2023-01-19T07:33:14.255Z,87.5
2023-01-19T07:34:24.365Z,87.8
2023-01-19T07:35:34.483Z,87.5
2023-01-19T07:36:44.606Z,87.5
2023-01-19T07:37:54.719Z,87.5
2023-01-19T07:39:04.832Z,87.6
2023-01-19T07:40:14.963Z,87.7
2023-01-19T07:41:25.075Z,87.5
2023-01-19T07:42:35.189Z,87.4
2023-01-19T07:44:55.437Z,87.6
2023-01-19T07:46:04.582Z,87.7
2023-01-19T07:47:14.684Z,87.6
2023-01-19T07:48:24.813Z,87.8
2023-01-19T07:49:34.921Z,87.6
2023-01-19T07:50:45.054Z,87.3
2023-01-19T07:51:55.161Z,87.2
2023-01-19T07:53:05.285Z,87.3
2023-01-19T07:54:15.405Z,87.5
2023-01-19T07:55:25.519Z,87.6
2023-01-19T07:56:35.632Z,87.5
2023-01-19T07:57:45.754Z,87.4
2023-01-19T07:58:55.872Z,87.2
2023-01-19T08:00:05.995Z,87.2
2023-01-19T08:01:15.133Z,86.9
2023-01-19T08:02:25.257Z,87.2
2023-01-19T08:03:35.362Z,86.9
2023-01-19T08:04:45.483Z,87
2023-01-19T08:05:55.605Z,87
2023-01-19T08:07:05.719Z,87.3
2023-01-19T08:08:15.836Z,86.8
2023-01-19T08:09:25.956Z,87
2023-01-19T08:10:36.089Z,87.2
2023-01-19T08:11:46.209Z,87.2
2023-01-19T08:12:56.314Z,87.1
2023-01-19T08:14:06.426Z,87
2023-01-19T08:15:16.549Z,87
2023-01-19T08:16:25.696Z,87.1
2023-01-19T08:17:35.799Z,86.7
2023-01-19T08:19:56.041Z,86.7
2023-01-19T08:21:06.164Z,86.7
2023-01-19T08:22:16.285Z,86.3
2023-01-19T08:23:26.395Z,86.5
2023-01-19T08:24:36.522Z,86.3
2023-01-19T08:25:46.636Z,86.3
2023-01-19T08:26:56.756Z,86.3
2023-01-19T08:28:06.872Z,86.1
2023-01-19T08:29:16.990Z,86.1
2023-01-19T08:30:27.108Z,86
2023-01-19T08:31:36.260Z,86.2
2023-01-19T08:32:46.371Z,85.7
2023-01-19T08:33:56.492Z,85.6
2023-01-19T08:35:05.623Z,85.4
2023-01-19T08:36:15.739Z,85.7
2023-01-19T08:37:25.858Z,86.2
2023-01-19T08:38:35.982Z,85.8
2023-01-19T08:39:46.114Z,85.7
2023-01-19T08:41:03.871Z,86.1
2023-01-19T08:42:06.336Z,86.1
2023-01-19T08:43:16.460Z,85.5
2023-01-19T08:44:26.584Z,85.5
2023-01-19T08:45:36.706Z,85.5
2023-01-19T08:46:46.825Z,85.7
2023-01-19T08:47:56.947Z,85.5
2023-01-19T08:49:07.056Z,85.6
2023-01-19T08:50:17.174Z,85.8
2023-01-19T08:51:26.314Z,85.4
2023-01-19T08:52:36.420Z,85.5
2023-01-19T08:53:46.541Z,85.3
2023-01-19T08:54:56.664Z,85.4
2023-01-19T08:56:06.788Z,85.4
2023-01-19T08:57:16.894Z,85.5
2023-01-19T08:58:27.015Z,85.6
2023-01-19T08:59:37.140Z,85.2
2023-01-19T09:01:57.386Z,84.3
2023-01-19T09:03:07.504Z,84.5
2023-01-19T09:04:17.606Z,84.2
2023-01-19T09:05:27.740Z,84.5
2023-01-19T09:06:37.119Z,84.7
2023-01-19T09:08:57.108Z,84.2
2023-01-19T09:10:07.230Z,84.5
2023-01-19T09:11:17.341Z,84.5
2023-01-19T09:12:27.453Z,84.2
2023-01-19T09:13:37.577Z,84.7
2023-01-19T09:14:47.699Z,85
2023-01-19T09:15:57.817Z,84.5
2023-01-19T09:17:07.941Z,84.1
2023-01-19T09:18:18.050Z,84.1
2023-01-19T09:19:28.173Z,84.1
2023-01-19T09:20:38.292Z,84.5
2023-01-19T09:21:47.422Z,84
2023-01-19T09:22:57.548Z,84
2023-01-19T09:24:07.653Z,84
2023-01-19T09:25:17.773Z,83.9
2023-01-19T09:26:27.897Z,84.2
2023-01-19T09:27:38.018Z,84.2
2023-01-19T09:29:58.262Z,83.9
2023-01-19T09:31:08.377Z,84.3
2023-01-19T09:32:18.499Z,83.8
2023-01-19T09:33:28.606Z,84.1
2023-01-19T09:34:38.721Z,83.8
2023-01-19T09:35:48.859Z,84
2023-01-19T09:36:57.985Z,83.8
2023-01-19T09:38:08.110Z,83.6
2023-01-19T09:39:18.231Z,83.3
2023-01-19T09:40:28.336Z,83.7
2023-01-19T09:41:38.461Z,83.3
2023-01-19T09:42:48.580Z,83.8
2023-01-19T09:43:58.703Z,83.7
2023-01-19T09:45:08.812Z,83.8
2023-01-19T09:46:18.932Z,83.6
2023-01-19T09:47:29.042Z,83.7
2023-01-19T09:48:39.167Z,83.6
2023-01-19T09:49:49.291Z,83.9
2023-01-19T09:50:59.398Z,83.8
2023-01-19T09:52:08.549Z,84.2
2023-01-19T09:53:18.667Z,83.8
2023-01-19T09:54:28.777Z,84.1
2023-01-19T09:55:38.891Z,83.7
2023-01-19T09:56:49.027Z,84
2023-01-19T09:57:59.133Z,83.9
2023-01-19T09:59:09.251Z,84
2023-01-19T10:00:19.377Z,84.2
2023-01-19T10:01:29.488Z,83.8
2023-01-19T10:02:39.613Z,83.5
2023-01-19T10:03:49.732Z,83.6
2023-01-19T10:04:59.853Z,83.5
2023-01-19T10:06:09.961Z,83.1
2023-01-19T10:07:19.102Z,83.1
2023-01-19T10:08:29.218Z,82.9
2023-01-19T10:09:39.345Z,82.9
2023-01-19T10:10:49.466Z,82.8
2023-01-19T10:11:59.572Z,83.1
2023-01-19T10:13:09.697Z,83.1
2023-01-19T10:14:19.819Z,83.1
2023-01-19T10:15:29.928Z,83.3
2023-01-19T10:16:40.064Z,83.4
2023-01-19T10:19:00.286Z,83.6
2023-01-19T10:20:10.408Z,83.1
2023-01-19T10:21:20.524Z,83.1
2023-01-19T10:22:29.658Z,83.1
2023-01-19T10:23:39.780Z,83.4
2023-01-19T10:26:00.019Z,83.4
2023-01-19T10:27:10.137Z,83.6
2023-01-19T10:28:20.248Z,83.7
2023-01-19T10:29:30.368Z,83.7
2023-01-19T10:30:40.488Z,83.6
2023-01-19T10:31:50.616Z,83.6
2023-01-19T10:33:00.722Z,84
2023-01-19T10:34:10.845Z,83.8
2023-01-19T10:35:20.966Z,84.3
2023-01-19T10:36:31.093Z,84.4
2023-01-19T10:37:40.217Z,84.4
2023-01-19T10:38:50.336Z,84.3
2023-01-19T10:40:00.447Z,84.3
2023-01-19T10:41:10.563Z,84.1
2023-01-19T10:42:20.683Z,84.2
2023-01-19T10:43:30.805Z,83.8
2023-01-19T10:44:40.926Z,83.7
2023-01-19T10:47:01.165Z,83.6
2023-01-19T10:48:11.285Z,83.6
2023-01-19T10:49:21.402Z,83.9
2023-01-19T10:50:31.522Z,84
2023-01-19T10:51:41.650Z,84.1
2023-01-19T10:54:00.890Z,84.2
2023-01-19T10:55:11.011Z,83.9
2023-01-19T10:56:21.130Z,84.1
2023-01-19T10:57:31.253Z,84.1
2023-01-19T10:58:41.365Z,83.7
2023-01-19T10:59:51.481Z,83.7
2023-01-19T11:01:01.606Z,83.9
2023-01-19T11:02:11.723Z,84
2023-01-19T11:03:21.838Z,84
2023-01-19T11:04:31.953Z,84
2023-01-19T11:05:42.072Z,83.8
2023-01-19T11:08:02.312Z,83.9
2023-01-19T11:09:12.593Z,84.1
2023-01-19T11:10:21.725Z,83.9
2023-01-19T11:11:31.846Z,84.1
2023-01-19T11:12:41.953Z,84.3
2023-01-19T11:13:52.075Z,84.4
2023-01-19T11:15:02.200Z,84.3
2023-01-19T11:16:12.314Z,83.8
2023-01-19T11:17:22.426Z,84.1
2023-01-19T11:18:32.550Z,84.3
2023-01-19T11:19:42.664Z,83.9
2023-01-19T11:22:02.901Z,83.9
2023-01-19T11:23:13.019Z,83.9
2023-01-19T11:24:23.141Z,83.6
2023-01-19T11:25:32.278Z,83.3
2023-01-19T11:26:42.385Z,83.4
2023-01-19T11:29:02.624Z,83.3
2023-01-19T11:30:11.773Z,83.4
2023-01-19T11:31:20.904Z,83.4
2023-01-19T11:32:31.036Z,83.4
2023-01-19T11:33:41.141Z,83.2
2023-01-19T11:34:51.270Z,83.2
2023-01-19T11:36:01.377Z,83.1
2023-01-19T11:38:21.626Z,82.9
2023-01-19T11:39:31.747Z,83.3
2023-01-19T11:40:41.863Z,82.9
2023-01-19T11:41:51.985Z,83.1
2023-01-19T11:43:02.087Z,82.5
2023-01-19T11:44:12.210Z,83.1
2023-01-19T11:45:22.327Z,82.5
2023-01-19T11:46:31.463Z,82.3
2023-01-19T11:47:41.576Z,82.1
2023-01-19T11:50:01.828Z,81.6
2023-01-19T11:51:11.932Z,82
2023-01-19T11:52:22.055Z,81.8
2023-01-19T11:53:32.181Z,81.5
2023-01-19T11:54:42.290Z,81.3
2023-01-19T11:57:02.530Z,81.6
2023-01-19T11:58:12.655Z,81.4
2023-01-19T11:59:22.763Z,81.3
2023-01-19T12:00:32.873Z,80.7
2023-01-19T12:01:42.017Z,80.3
2023-01-19T12:02:52.137Z,79.8
2023-01-19T12:04:02.243Z,79.5
2023-01-19T12:05:12.379Z,79.5
2023-01-19T12:06:22.481Z,80.2
2023-01-19T12:07:32.608Z,80.1
2023-01-19T12:08:42.730Z,79.1
2023-01-19T12:09:52.851Z,79.3
2023-01-19T12:11:02.970Z,79.1
2023-01-19T12:12:13.076Z,79
2023-01-19T12:13:23.204Z,78.7
2023-01-19T12:14:32.341Z,78.8
2023-01-19T12:15:41.473Z,78.5
2023-01-19T12:16:51.590Z,78.2
2023-01-19T12:18:01.721Z,79.1
2023-01-19T12:19:11.832Z,79.7
2023-01-19T12:20:21.936Z,79
2023-01-19T12:21:32.069Z,79.2
2023-01-19T12:22:42.000Z,79.1
2023-01-19T12:23:52.295Z,78.8
2023-01-19T12:25:02.425Z,79.2
2023-01-19T12:26:12.537Z,78.3
2023-01-19T12:27:21.695Z,78.2
2023-01-19T12:28:30.816Z,78.4
2023-01-19T12:29:39.959Z,78
2023-01-19T12:32:00.186Z,77.7
2023-01-19T12:33:10.321Z,78.3
2023-01-19T12:34:20.416Z,78.8
2023-01-19T12:35:30.536Z,78.5
2023-01-19T12:36:40.659Z,78.5
2023-01-19T12:39:00.910Z,79
2023-01-19T12:40:11.030Z,79.1
2023-01-19T12:41:21.146Z,79.6
2023-01-19T12:42:30.291Z,79.4
2023-01-19T12:43:39.427Z,79.7
2023-01-19T12:44:49.543Z,79.5
2023-01-19T12:45:59.650Z,79.7
2023-01-19T12:47:09.779Z,80
2023-01-19T12:48:19.885Z,80
2023-01-19T12:49:30.008Z,80.1
2023-01-19T12:50:40.131Z,80.1
2023-01-19T12:51:50.236Z,80.4
2023-01-19T12:53:00.356Z,80.5
2023-01-19T12:54:10.634Z,80.8
2023-01-19T12:55:19.760Z,80.5
2023-01-19T12:56:29.882Z,80.8
2023-01-19T12:57:40.001Z,80.8
2023-01-19T13:00:00.242Z,80.8
2023-01-19T13:01:10.356Z,80.5
2023-01-19T13:02:20.474Z,80.6
2023-01-19T13:03:30.593Z,81.1
2023-01-19T13:04:40.704Z,81.2
2023-01-19T13:05:50.817Z,82
2023-01-19T13:07:00.934Z,81.5
2023-01-19T13:08:11.053Z,81.7
2023-01-19T13:09:21.172Z,81.8
2023-01-19T13:10:30.298Z,81.1
2023-01-19T13:11:40.421Z,81
2023-01-19T13:14:00.660Z,81.3
2023-01-19T13:15:09.803Z,81.3
2023-01-19T13:16:18.955Z,81.5
2023-01-19T13:18:39.189Z,81.8
2023-01-19T13:19:49.309Z,81.5
2023-01-19T13:20:59.412Z,81.4
2023-01-19T13:22:09.526Z,81.9
2023-01-19T13:23:19.654Z,82
2023-01-19T13:24:29.780Z,81.8
2023-01-19T13:25:39.885Z,81.8
2023-01-19T13:26:50.018Z,81.9
2023-01-19T13:28:00.129Z,81.9
2023-01-19T13:29:10.238Z,81.7
2023-01-19T13:30:20.356Z,81.9
2023-01-19T13:31:29.494Z,81.7
2023-01-19T13:32:39.622Z,82.1
2023-01-19T13:33:49.742Z,82.4
2023-01-19T13:34:59.856Z,82.6
2023-01-19T13:36:09.980Z,82.9
2023-01-19T13:37:20.079Z,83.1
2023-01-19T13:38:30.210Z,83.4
2023-01-19T13:39:40.321Z,83.8
2023-01-19T13:40:49.474Z,83.5
2023-01-19T13:41:58.597Z,83.9
2023-01-19T13:43:08.718Z,84.3
2023-01-19T13:44:18.840Z,84.3
2023-01-19T13:45:28.963Z,84
2023-01-19T13:46:39.072Z,83.8
2023-01-19T13:47:49.197Z,83.8
2023-01-19T13:48:59.306Z,83.8
2023-01-19T13:50:09.429Z,83.7
2023-01-19T13:51:19.550Z,83.8
2023-01-19T13:52:29.666Z,83.7
2023-01-19T13:53:39.786Z,83.5
2023-01-19T13:54:49.903Z,83.3
2023-01-19T13:56:00.030Z,83.8
2023-01-19T13:57:09.153Z,84
2023-01-19T13:58:19.278Z,83.5
2023-01-19T13:59:29.387Z,83.5
2023-01-19T14:00:39.515Z,83.7
2023-01-19T14:02:59.752Z,84.2
2023-01-19T14:04:09.878Z,84.1
2023-01-19T14:05:19.987Z,84.8
2023-01-19T14:07:40.219Z,84.7
2023-01-19T14:08:50.347Z,85
2023-01-19T14:10:00.465Z,84.9
2023-01-19T14:11:10.588Z,84.7
2023-01-19T14:12:19.705Z,85.2
2023-01-19T14:13:29.823Z,85.5
2023-01-19T14:14:39.932Z,85.2
2023-01-19T14:17:00.187Z,85.3
2023-01-19T14:18:10.453Z,85.2
2023-01-19T14:19:20.683Z,85.2
2023-01-19T14:20:30.817Z,85.3
2023-01-19T14:21:40.920Z,85.6
2023-01-19T14:22:51.054Z,85.8
2023-01-19T14:24:01.162Z,85.8
2023-01-19T14:25:11.278Z,85.5
2023-01-19T14:26:21.397Z,85.2
2023-01-19T14:27:31.521Z,85.4
2023-01-19T14:28:41.627Z,85.3
2023-01-19T14:29:51.748Z,85.4
2023-01-19T14:31:00.905Z,85.3
2023-01-19T14:32:10.040Z,85.4
2023-01-19T14:33:20.152Z,85.2
2023-01-19T14:34:30.277Z,85.2
2023-01-19T14:35:40.372Z,85.3
2023-01-19T14:38:00.614Z,85.4
2023-01-19T14:39:10.747Z,85.4
2023-01-19T14:40:20.869Z,85.4
2023-01-19T14:41:30.990Z,85.7
2023-01-19T14:42:41.095Z,85.4
2023-01-19T14:43:51.224Z,85.7
2023-01-19T14:45:01.331Z,85.8
2023-01-19T14:46:11.454Z,85.5
2023-01-19T14:47:20.596Z,85.5
2023-01-19T14:48:30.719Z,85.6
2023-01-19T14:49:40.812Z,85.7
2023-01-19T14:52:01.057Z,85.4
2023-01-19T14:53:10.211Z,85.3
2023-01-19T14:54:19.342Z,85.4
2023-01-19T14:55:29.468Z,85.4
2023-01-19T14:56:39.573Z,85.5
2023-01-19T14:57:49.706Z,86
2023-01-19T14:58:59.813Z,85.8
2023-01-19T15:00:09.941Z,85.7
2023-01-19T15:01:20.048Z,85.8
2023-01-19T15:02:30.182Z,85.6
2023-01-19T15:03:40.296Z,86
2023-01-19T15:04:50.419Z,85.7
2023-01-19T15:06:00.681Z,85.5
2023-01-19T15:07:10.919Z,85.7
2023-01-19T15:08:21.039Z,85.5
2023-01-19T15:09:31.163Z,85.4
2023-01-19T15:10:41.268Z,85.4
2023-01-19T15:11:51.388Z,85.2
2023-01-19T15:13:01.508Z,85.3
2023-01-19T15:14:11.633Z,85.5
2023-01-19T15:15:21.741Z,85.5
2023-01-19T15:16:31.865Z,85.4
2023-01-19T15:17:41.994Z,85.4
2023-01-19T15:18:52.110Z,85.2
2023-01-19T15:20:02.214Z,85.2
2023-01-19T15:21:12.338Z,85.1
2023-01-19T15:22:21.477Z,84.8
2023-01-19T15:23:31.605Z,84.8
2023-01-19T15:24:41.712Z,84.8
2023-01-19T15:25:51.842Z,85.2
2023-01-19T15:27:01.950Z,85.2
2023-01-19T15:28:12.078Z,85.1
2023-01-19T15:29:22.180Z,85
2023-01-19T15:30:32.303Z,85.1
2023-01-19T15:31:42.433Z,85.1
2023-01-19T15:34:02.662Z,85.2
2023-01-19T15:35:12.785Z,85.2
2023-01-19T15:36:22.890Z,85.3
2023-01-19T15:37:32.035Z,85.5
2023-01-19T15:38:42.147Z,85.3
2023-01-19T15:41:02.390Z,85.2
2023-01-19T15:42:12.509Z,85.2
2023-01-19T15:43:22.630Z,85.7
2023-01-19T15:44:32.740Z,85.2
2023-01-19T15:45:42.862Z,85.5
2023-01-19T15:46:52.985Z,85.6
2023-01-19T15:48:03.092Z,85.4
2023-01-19T15:49:13.224Z,85.4
2023-01-19T15:50:23.341Z,85.4
2023-01-19T15:51:33.450Z,85.4
2023-01-19T15:52:42.588Z,85.4
2023-01-19T15:53:52.715Z,85.6
2023-01-19T15:55:02.818Z,85.8
2023-01-19T15:56:12.942Z,85.9
2023-01-19T15:57:23.068Z,85.6
2023-01-19T15:58:33.191Z,85.5
2023-01-19T15:59:43.295Z,85.6
2023-01-19T16:00:53.414Z,85.9
2023-01-19T16:02:03.533Z,86
2023-01-19T16:03:13.655Z,86.1
2023-01-19T16:04:23.771Z,85.9
2023-01-19T16:05:33.901Z,86.1
2023-01-19T16:06:44.021Z,85.9
2023-01-19T16:07:53.159Z,86.2
2023-01-19T16:09:03.271Z,86.5
2023-01-19T16:10:13.392Z,86.2
2023-01-19T16:11:23.496Z,86.1
2023-01-19T16:12:33.615Z,86
2023-01-19T16:13:43.737Z,86.2
2023-01-19T16:14:53.863Z,86.3
2023-01-19T16:16:03.983Z,86
2023-01-19T16:17:14.093Z,86.1
2023-01-19T16:18:24.223Z,86.1
2023-01-19T16:19:34.329Z,86.6
2023-01-19T16:20:44.444Z,87.1
2023-01-19T16:21:54.577Z,87.3